Time;durP1;ratioP1;P1;durP2;ratioP2;P2;SDS_P1;SDS_P2;PMS_P1;PMS_P2;Temp;Humidity;BMP_temperature;BMP_pressure;BME280_temperature;BME280_humidity;BME280_pressure;Samples;Min_cycle;Max_cycle;Signal;HPM_P1;HPM_P2
2023/07/18 00:01:30;;;;;;;;;0.50;0.00;;;;;-147.70;100.00;61350.09;5060173;28;45313;-74
2023/07/18 00:03:56;;;;;;;;;1.00;1.00;;;;;-147.70;100.00;61350.09;5059805;28;47580;-73
2023/07/18 00:06:24;;;;;;;;;1.00;0.00;;;;;-147.70;100.00;61350.09;5059652;28;45312;-75
2023/07/18 00:08:50;;;;;;;;;0.00;0.00;;;;;-147.70;100.00;61350.09;5060027;28;45283;-75
2023/07/18 00:11:15;;;;;;;;;0.25;0.25;;;;;-147.70;100.00;61350.09;5060280;28;45890;-75
2023/07/18 00:13:41;;;;;;;;;2.50;1.00;;;;;-147.70;100.00;61350.09;5060033;28;46041;-75
2023/07/18 00:16:06;;;;;;;;;1.00;1.00;;;;;-147.70;100.00;61350.09;5060285;28;45451;-76
2023/07/18 00:18:31;;;;;;;;;1.00;1.00;;;;;-147.70;100.00;61350.09;5059796;28;45447;-75
2023/07/18 00:20:56;;;;;;;;;0.25;0.25;;;;;-147.70;100.00;61350.09;5060347;28;45396;-75
2023/07/18 00:23:22;;;;;;;;;0.00;0.00;;;;;-147.70;100.00;61350.09;5060087;28;45395;-75
2023/07/18 00:25:47;;;;;;;;;1.00;1.00;;;;;-147.70;100.00;61350.09;5059903;28;45415;-76
2023/07/18 00:28:12;;;;;;;;;1.00;1.00;;;;;-147.70;100.00;61350.09;5059928;28;45421;-76
2023/07/18 00:30:38;;;;;;;;;4.50;1.00;;;;;-147.70;100.00;61350.09;5060161;28;45439;-75
2023/07/18 00:33:03;;;;;;;;;3.00;1.00;;;;;-147.70;100.00;61350.09;5059739;28;45362;-74
2023/07/18 00:35:29;;;;;;;;;5.67;1.33;;;;;-147.70;100.00;61350.09;5059677;28;45376;-74
2023/07/18 00:37:54;;;;;;;;;2.00;0.00;;;;;-147.70;100.00;61350.09;5059892;28;45326;-75
2023/07/18 00:40:20;;;;;;;;;2.00;0.00;;;;;-147.70;100.00;61350.09;5060101;28;45345;-77
2023/07/18 00:42:47;;;;;;;;;1.00;1.00;;;;;-147.70;100.00;61350.09;5059116;28;46453;-74
2023/07/18 00:45:13;;;;;;;;;2.50;1.00;;;;;-147.70;100.00;61350.09;5056406;28;45673;-75
2023/07/18 00:47:42;;;;;;;;;1.00;0.00;;;;;-147.70;100.00;61350.09;5059724;28;45264;-75
2023/07/18 00:50:10;;;;;;;;;2.00;1.00;;;;;-147.70;100.00;61350.09;5059909;28;45301;-75
2023/07/18 00:52:40;;;;;;;;;0.00;0.00;;;;;-147.70;100.00;61350.09;5058820;28;45447;-74
2023/07/18 00:55:09;;;;;;;;;0.75;0.75;;;;;-147.70;100.00;61350.09;5058713;28;45389;-76
2023/07/18 00:57:36;;;;;;;;;1.00;0.50;;;;;-147.70;100.00;61350.09;5059491;28;45441;-76
2023/07/18 01:00:01;;;;;;;;;1.00;0.50;;;;;-147.70;100.00;61350.09;5059337;28;46680;-75
2023/07/18 01:02:28;;;;;;;;;2.00;2.00;;;;;-147.70;100.00;61350.09;5058940;28;46594;-75
2023/07/18 01:04:54;;;;;;;;;3.00;1.33;;;;;-147.70;100.00;61350.09;5059345;28;45418;-74
2023/07/18 01:07:20;;;;;;;;;1.00;1.00;;;;;-147.70;100.00;61350.09;5059618;28;45233;-74
2023/07/18 01:09:47;;;;;;;;;4.00;1.00;;;;;-147.70;100.00;61350.09;5059536;28;45783;-75
2023/07/18 01:12:12;;;;;;;;;0.25;0.25;;;;;-147.70;100.00;61350.09;5058835;28;46403;-74
2023/07/18 01:14:37;;;;;;;;;1.50;1.00;;;;;-147.70;100.00;61350.09;5059442;28;45284;-74
2023/07/18 01:17:05;;;;;;;;;0.25;0.25;;;;;-147.70;100.00;61350.09;5059079;28;45261;-75
2023/07/18 01:19:31;;;;;;;;;0.75;0.75;;;;;-147.70;100.00;61350.09;5059548;28;45234;-74
2023/07/18 01:21:56;;;;;;;;;5.75;1.00;;;;;-147.70;100.00;61350.09;5058824;28;45416;-75
2023/07/18 01:24:22;;;;;;;;;1.67;1.00;;;;;-147.70;100.00;61350.09;5058883;28;45300;-74
2023/07/18 01:26:47;;;;;;;;;1.00;1.00;;;;;-147.70;100.00;61350.09;5059062;28;45542;-74
2023/07/18 01:29:13;;;;;;;;;2.67;0.33;;;;;-147.70;100.00;61350.09;5059035;28;45301;-74
2023/07/18 01:31:38;;;;;;;;;5.00;0.25;;;;;-147.70;100.00;61350.09;5058838;28;46963;-73
2023/07/18 01:34:04;;;;;;;;;0.00;0.00;;;;;-147.70;100.00;61350.09;5058975;28;45344;-76
2023/07/18 01:36:30;;;;;;;;;1.25;1.00;;;;;-147.70;100.00;61350.09;5058770;28;45303;-73
2023/07/18 01:38:55;;;;;;;;;0.00;0.00;;;;;-147.70;100.00;61350.09;5058341;28;45370;-75
2023/07/18 01:41:20;;;;;;;;;1.00;1.00;;;;;-147.70;100.00;61350.09;5054774;28;46781;-73
2023/07/18 01:43:46;;;;;;;;;0.00;0.00;;;;;-147.70;100.00;61350.09;5058907;28;45312;-76
2023/07/18 01:46:11;;;;;;;;;5.67;1.00;;;;;-147.70;100.00;61350.09;5058954;28;45363;-75
2023/07/18 01:48:37;;;;;;;;;0.00;0.00;;;;;-147.70;100.00;61350.09;5058977;28;45498;-74
2023/07/18 01:51:03;;;;;;;;;0.25;0.25;;;;;-147.70;100.00;61350.09;5058793;28;46466;-73
2023/07/18 01:53:29;;;;;;;;;1.00;1.00;;;;;-147.70;100.00;61350.09;5058704;28;45513;-78
2023/07/18 01:55:57;;;;;;;;;1.00;1.00;;;;;-147.70;100.00;61350.09;5058927;28;45504;-72
2023/07/18 01:58:23;;;;;;;;;2.00;1.00;;;;;-147.70;100.00;61350.09;5058750;28;45201;-76
2023/07/18 02:00:48;;;;;;;;;0.50;0.00;;;;;-147.70;100.00;61350.09;5058190;28;46583;-74
2023/07/18 02:03:13;;;;;;;;;4.00;0.75;;;;;-147.70;100.00;61350.09;5058071;28;45388;-74
2023/07/18 02:05:39;;;;;;;;;0.00;0.00;;;;;-147.70;100.00;61350.09;5057384;28;45644;-74
2023/07/18 02:08:04;;;;;;;;;1.50;1.50;;;;;-147.70;100.00;61350.09;5058774;28;45432;-75
2023/07/18 02:10:29;;;;;;;;;1.25;0.00;;;;;-147.70;100.00;61350.09;5058050;28;45457;-73
2023/07/18 02:13:01;;;;;;;;;2.00;1.00;;;;;-147.70;100.00;61350.09;5058201;28;45220;-73
2023/07/18 02:15:28;;;;;;;;;3.25;1.25;;;;;-147.70;100.00;61350.09;5057937;28;45446;-74
2023/07/18 02:17:54;;;;;;;;;1.00;1.00;;;;;-147.70;100.00;61350.09;5057924;28;45531;-74
2023/07/18 02:20:19;;;;;;;;;2.00;1.00;;;;;-147.70;100.00;61350.09;5058150;28;46733;-75
2023/07/18 02:22:46;;;;;;;;;2.75;0.00;;;;;-147.70;100.00;61350.09;5057601;28;45233;-74
2023/07/18 02:25:15;;;;;;;;;0.75;0.75;;;;;-147.70;100.00;61350.09;5058336;28;45390;-74
2023/07/18 02:27:40;;;;;;;;;0.25;0.25;;;;;-147.70;100.00;61350.09;5058343;28;45426;-74
2023/07/18 02:30:11;;;;;;;;;3.67;1.33;;;;;-147.70;100.00;61350.09;5057881;28;45448;-74
2023/07/18 02:32:37;;;;;;;;;1.00;1.00;;;;;-147.70;100.00;61350.09;5057894;28;45298;-74
2023/07/18 02:35:03;;;;;;;;;1.75;0.75;;;;;-147.70;100.00;61350.09;5058137;28;45290;-73
2023/07/18 02:37:28;;;;;;;;;0.75;0.75;;;;;-147.70;100.00;61350.09;5057805;28;45411;-74
2023/07/18 02:39:54;;;;;;;;;3.00;1.00;;;;;-147.70;100.00;61350.09;5058024;28;45530;-74
2023/07/18 02:42:19;;;;;;;;;2.00;2.00;;;;;-147.70;100.00;61350.09;5057027;28;45451;-74
2023/07/18 02:44:46;;;;;;;;;1.00;1.00;;;;;-147.70;100.00;61350.09;5057954;28;45319;-74
2023/07/18 02:47:12;;;;;;;;;1.00;1.00;;;;;-147.70;100.00;61350.09;5058010;28;45466;-74
2023/07/18 02:49:37;;;;;;;;;2.67;1.33;;;;;-147.70;100.00;61350.09;5057691;28;45319;-74
2023/07/18 02:52:03;;;;;;;;;3.00;2.00;;;;;-147.70;100.00;61350.09;5057833;28;45518;-74
2023/07/18 02:54:29;;;;;;;;;1.00;1.00;;;;;-147.70;100.00;61350.09;5057772;28;45398;-74
2023/07/18 02:56:56;;;;;;;;;3.00;1.00;;;;;-147.70;100.00;61350.09;5057819;28;45348;-74
2023/07/18 02:59:22;;;;;;;;;2.00;1.67;;;;;-147.70;100.00;61350.09;5057125;28;47415;-75
2023/07/18 03:01:49;;;;;;;;;3.00;3.00;;;;;-147.70;100.00;61350.09;5057388;28;45312;-74
2023/07/18 03:04:18;;;;;;;;;4.00;3.00;;;;;-147.70;100.00;61350.09;5057612;28;45454;-74
2023/07/18 03:06:47;;;;;;;;;4.00;3.00;;;;;-147.70;100.00;61350.09;5057856;28;45305;-75
2023/07/18 03:09:12;;;;;;;;;3.67;1.67;;;;;-147.70;100.00;61350.09;5057278;28;46190;-75
2023/07/18 03:11:38;;;;;;;;;2.33;2.33;;;;;-147.70;100.00;61350.09;5057008;28;45419;-74
2023/07/18 03:14:03;;;;;;;;;4.00;2.33;;;;;-147.70;100.00;61350.09;5057517;28;45356;-74
2023/07/18 03:16:29;;;;;;;;;7.00;3.00;;;;;-147.70;100.00;61350.09;5057186;28;45727;-75
2023/07/18 03:18:54;;;;;;;;;3.00;2.00;;;;;-147.70;100.00;61350.09;5057243;28;46538;-73
2023/07/18 03:21:20;;;;;;;;;3.00;3.00;;;;;-147.70;100.00;61350.09;5056994;28;45506;-74
2023/07/18 03:23:45;;;;;;;;;2.00;0.00;;;;;-147.70;100.00;61350.09;5057382;28;45403;-74
2023/07/18 03:26:11;;;;;;;;;4.67;2.00;;;;;-147.70;100.00;61350.09;5057058;28;45312;-73
2023/07/18 03:28:36;;;;;;;;;6.00;3.00;;;;;-147.70;100.00;61350.09;5056781;28;46197;-74
2023/07/18 03:31:02;;;;;;;;;2.33;2.33;;;;;-147.70;100.00;61350.09;5057205;28;45282;-74
2023/07/18 03:33:28;;;;;;;;;6.67;6.67;;;;;-147.70;100.00;61350.09;5057239;28;45466;-74
2023/07/18 03:35:53;;;;;;;;;2.33;2.33;;;;;-147.70;100.00;61350.09;5057326;28;45364;-74
2023/07/18 03:38:19;;;;;;;;;4.33;3.00;;;;;-147.70;100.00;61350.09;5056540;28;46266;-74
2023/07/18 03:40:47;;;;;;;;;3.67;2.67;;;;;-147.70;100.00;61350.09;5057029;28;45325;-74
2023/07/18 03:43:12;;;;;;;;;6.67;3.33;;;;;-147.70;100.00;61350.09;5057085;28;45308;-74
2023/07/18 03:45:37;;;;;;;;;6.33;4.67;;;;;-147.70;100.00;61350.09;5057224;28;45466;-74
2023/07/18 03:48:03;;;;;;;;;4.33;4.00;;;;;-147.70;100.00;61350.09;5056726;28;45985;-74
2023/07/18 03:50:28;;;;;;;;;4.33;2.67;;;;;-147.70;100.00;61350.09;5056950;28;45312;-74
2023/07/18 03:52:54;;;;;;;;;5.00;4.67;;;;;-147.70;100.00;61350.09;5057051;28;45382;-74
2023/07/18 03:55:19;;;;;;;;;5.67;3.00;;;;;-147.70;100.00;61350.09;5057265;28;45435;-74
2023/07/18 03:57:44;;;;;;;;;3.67;3.33;;;;;-147.70;100.00;61350.09;5056602;28;45694;-74
2023/07/18 04:00:16;;;;;;;;;1.67;1.67;;;;;-147.70;100.00;61350.09;5055516;28;45405;-74
2023/07/18 04:02:42;;;;;;;;;0.00;0.00;;;;;-147.70;100.00;61350.09;5056482;28;45392;-74
2023/07/18 04:05:08;;;;;;;;;5.00;3.33;;;;;-147.70;100.00;61350.09;5057024;28;45395;-74
2023/07/18 04:07:33;;;;;;;;;1.67;1.67;;;;;-147.70;100.00;61350.09;5056702;28;46433;-74
2023/07/18 04:09:59;;;;;;;;;7.67;4.67;;;;;-147.70;100.00;61350.09;5056762;28;45356;-74
2023/07/18 04:12:24;;;;;;;;;2.00;2.00;;;;;-147.70;100.00;61350.09;5056528;28;45381;-73
2023/07/18 04:14:50;;;;;;;;;4.67;2.67;;;;;-147.70;100.00;61350.09;5057064;28;45396;-73
2023/07/18 04:17:16;;;;;;;;;2.67;2.67;;;;;-147.70;100.00;61350.09;5039255;28;45486;-73
2023/07/18 04:19:41;;;;;;;;;3.00;3.00;;;;;-147.70;100.00;61350.09;5037297;28;45468;-73
2023/07/18 04:22:07;;;;;;;;;0.75;0.75;;;;;-147.70;100.00;61350.09;5056408;28;45163;-74
2023/07/18 04:24:32;;;;;;;;;4.00;2.00;;;;;-147.70;100.00;61350.09;5056391;28;45378;-74
2023/07/18 04:26:57;;;;;;;;;5.00;2.67;;;;;-147.70;100.00;61350.09;5056336;28;45335;-73
2023/07/18 04:29:24;;;;;;;;;7.67;6.33;;;;;-147.70;100.00;61350.09;5058990;28;45469;-74
2023/07/18 04:31:49;;;;;;;;;7.33;3.00;;;;;-147.70;100.00;61350.09;5060100;28;45470;-74
2023/07/18 04:34:18;;;;;;;;;6.33;5.00;;;;;-147.70;100.00;61350.09;5058890;28;45389;-74
2023/07/18 04:36:44;;;;;;;;;4.33;3.33;;;;;-147.70;100.00;61350.09;5059447;28;46426;-74
2023/07/18 04:39:09;;;;;;;;;4.33;4.33;;;;;-147.70;100.00;61350.09;5059758;28;45423;-76
2023/07/18 04:41:35;;;;;;;;;14.67;9.00;;;;;-147.70;100.00;61350.09;5059864;28;45293;-74
2023/07/18 04:44:00;;;;;;;;;11.67;5.00;;;;;-147.70;100.00;61350.09;5059495;28;45364;-74
2023/07/18 04:46:26;;;;;;;;;6.33;3.33;;;;;-147.70;100.00;61350.09;5059390;28;47388;-75
2023/07/18 04:48:51;;;;;;;;;8.00;5.67;;;;;-147.70;100.00;61350.09;5059236;28;45262;-74
2023/07/18 04:51:17;;;;;;;;;6.00;3.33;;;;;-147.70;100.00;61350.09;5059666;28;45271;-73
2023/07/18 04:53:42;;;;;;;;;2.67;2.67;;;;;-147.70;100.00;61350.09;5059831;28;45437;-74
2023/07/18 04:56:08;;;;;;;;;4.67;2.33;;;;;-147.70;100.00;61350.09;5059561;28;45879;-74
2023/07/18 04:58:33;;;;;;;;;2.33;2.33;;;;;-147.70;100.00;61350.09;5059227;28;45466;-73
2023/07/18 05:00:59;;;;;;;;;3.67;2.67;;;;;-147.70;100.00;61350.09;5059644;28;45299;-74
2023/07/18 05:03:25;;;;;;;;;3.00;1.67;;;;;-147.70;100.00;61350.09;5059242;28;45273;-73
2023/07/18 05:05:51;;;;;;;;;3.67;2.67;;;;;-147.70;100.00;61350.09;5059213;28;45500;-74
2023/07/18 05:08:17;;;;;;;;;7.00;4.67;;;;;-147.70;100.00;61350.09;5059004;28;45392;-73
2023/07/18 05:10:43;;;;;;;;;5.33;4.00;;;;;-147.70;100.00;61350.09;5059500;28;45301;-74
2023/07/18 05:13:08;;;;;;;;;4.33;3.00;;;;;-147.70;100.00;61350.09;5059341;28;45361;-74
2023/07/18 05:15:34;;;;;;;;;51.00;43.33;;;;;-147.70;100.00;61350.09;5058933;28;47171;-74
2023/07/18 05:17:59;;;;;;;;;6.67;6.67;;;;;-147.70;100.00;61350.09;5046313;28;45683;-74
2023/07/18 05:20:24;;;;;;;;;29.33;29.33;;;;;-147.70;100.00;61350.09;5039194;28;45389;-74
2023/07/18 05:22:50;;;;;;;;;4.33;4.33;;;;;-147.70;100.00;61350.09;5059154;28;45312;-74
2023/07/18 05:25:19;;;;;;;;;7.00;5.00;;;;;-147.70;100.00;61350.09;5058993;28;45352;-73
2023/07/18 05:27:44;;;;;;;;;5.67;2.00;;;;;-147.70;100.00;61350.09;5058506;28;45314;-75
2023/07/18 05:30:16;;;;;;;;;3.00;3.00;;;;;-147.70;100.00;61350.09;5057453;28;45315;-73
2023/07/18 05:32:42;;;;;;;;;2.00;2.00;;;;;-147.70;100.00;61350.09;5059364;28;45286;-73
2023/07/18 05:35:13;;;;;;;;;2.33;2.33;;;;;-147.70;100.00;61350.09;5058864;28;45470;-73
2023/07/18 05:37:40;;;;;;;;;2.33;2.33;;;;;-147.70;100.00;61350.09;5058763;28;45317;-73
2023/07/18 05:40:08;;;;;;;;;6.50;2.00;;;;;-147.70;100.00;61350.09;5058610;28;45344;-73
2023/07/18 05:42:34;;;;;;;;;3.33;2.67;;;;;-147.70;100.00;61350.09;5058197;28;45416;-73
2023/07/18 05:44:59;;;;;;;;;10.00;2.00;;;;;-147.70;100.00;61350.09;5049951;28;46199;-74
2023/07/18 05:47:24;;;;;;;;;6.67;3.67;;;;;-147.70;100.00;61350.09;5055580;28;45514;-73
2023/07/18 05:49:50;;;;;;;;;4.00;4.00;;;;;-147.70;100.00;61350.09;5058834;28;45494;-73
2023/07/18 05:52:15;;;;;;;;;7.33;5.00;;;;;-147.70;100.00;61350.09;5059322;28;45451;-75
2023/07/18 05:54:40;;;;;;;;;4.33;3.00;;;;;-147.70;100.00;61350.09;5055987;28;46603;-73
2023/07/18 05:57:06;;;;;;;;;6.00;5.00;;;;;-147.70;100.00;61350.09;5057819;28;45389;-74
2023/07/18 05:59:31;;;;;;;;;3.67;3.00;;;;;-147.70;100.00;61350.09;5050510;28;45337;-74
2023/07/18 06:01:57;;;;;;;;;13.67;12.00;;;;;-147.70;100.00;61350.09;5052404;28;45391;-71
2023/07/18 06:04:23;;;;;;;;;5.00;5.00;;;;;-147.70;100.00;61350.09;5058503;28;45508;-72
2023/07/18 06:06:48;;;;;;;;;4.00;4.00;;;;;-147.70;100.00;61350.09;5058108;28;45420;-72
2023/07/18 06:09:13;;;;;;;;;10.00;4.00;;;;;-147.70;100.00;61350.09;5056851;28;45560;-72
2023/07/18 06:11:39;;;;;;;;;1.67;1.67;;;;;-147.70;100.00;61350.09;5055369;28;45405;-76
2023/07/18 06:14:08;;;;;;;;;3.67;3.00;;;;;-147.70;100.00;61350.09;5057380;28;46465;-77
2023/07/18 06:16:33;;;;;;;;;2.33;2.33;;;;;-147.70;100.00;61350.09;5058006;28;45302;-75
2023/07/18 06:18:58;;;;;;;;;1.67;1.67;;;;;-147.70;100.00;61350.09;5058128;28;45321;-77
2023/07/18 06:21:26;;;;;;;;;4.00;3.00;;;;;-147.70;100.00;61350.09;5058451;28;45595;-76
2023/07/18 06:23:56;;;;;;;;;1.00;1.00;;;;;-147.70;100.00;61350.09;5057642;28;47005;-80
2023/07/18 06:26:22;;;;;;;;;3.00;2.00;;;;;-147.70;100.00;61350.09;5058004;28;45398;-77
2023/07/18 06:28:48;;;;;;;;;3.33;3.33;;;;;-147.70;100.00;61350.09;5055427;28;45456;-76
2023/07/18 06:31:14;;;;;;;;;4.00;3.33;;;;;-147.70;100.00;61350.09;5046888;28;45376;-75
2023/07/18 06:33:40;;;;;;;;;4.33;3.00;;;;;-147.70;100.00;61350.09;5056312;28;45602;-82
2023/07/18 06:36:06;;;;;;;;;1.67;1.67;;;;;-147.70;100.00;61350.09;5058100;28;45467;-77
2023/07/18 06:38:31;;;;;;;;;3.00;2.00;;;;;-147.70;100.00;61350.09;5057310;28;45544;-79
2023/07/18 06:40:57;;;;;;;;;3.33;3.33;;;;;-147.70;100.00;61350.09;5057796;28;45426;-80
2023/07/18 06:43:22;;;;;;;;;4.00;3.00;;;;;-147.70;100.00;61350.09;5057457;28;46646;-75
2023/07/18 06:45:47;;;;;;;;;9.67;7.00;;;;;-147.70;100.00;61350.09;5052910;28;45427;-76
2023/07/18 06:48:13;;;;;;;;;7.00;5.67;;;;;-147.70;100.00;61350.09;5057753;28;45464;-76
2023/07/18 06:50:47;;;;;;;;;3.00;3.00;;;;;-147.70;100.00;61350.09;5057467;28;45430;-76
2023/07/18 06:53:18;;;;;;;;;2.00;2.00;;;;;-147.70;100.00;61350.09;5056652;28;45735;-75
2023/07/18 06:55:44;;;;;;;;;4.33;4.33;;;;;-147.70;100.00;61350.09;5053883;28;45407;-77
2023/07/18 06:58:10;;;;;;;;;6.00;3.33;;;;;-147.70;100.00;61350.09;5057689;28;45292;-76
2023/07/18 07:00:36;;;;;;;;;1.00;1.00;;;;;-147.70;100.00;61350.09;5048984;28;45313;-78
2023/07/18 07:03:02;;;;;;;;;3.00;1.00;;;;;-147.70;100.00;61350.09;5057189;28;45489;-77
2023/07/18 07:05:27;;;;;;;;;1.75;0.00;;;;;-147.70;100.00;61350.09;5057281;28;45327;-77
2023/07/18 07:07:53;;;;;;;;;4.33;3.00;;;;;-147.70;100.00;61350.09;5057504;28;45292;-77
2023/07/18 07:10:19;;;;;;;;;1.00;1.00;;;;;-147.70;100.00;61350.09;5057218;28;45649;-79
2023/07/18 07:12:44;;;;;;;;;0.00;0.00;;;;;-147.70;100.00;61350.09;5056776;28;46485;-77
2023/07/18 07:15:10;;;;;;;;;0.00;0.00;;;;;-147.70;100.00;61350.09;5057415;28;45377;-80
2023/07/18 07:17:36;;;;;;;;;1.00;1.00;;;;;-147.70;100.00;61350.09;5057052;28;45490;-77
2023/07/18 07:20:01;;;;;;;;;4.00;1.00;;;;;-147.70;100.00;61350.09;5056093;28;45395;-78
2023/07/18 07:22:27;;;;;;;;;2.25;2.25;;;;;-147.70;100.00;61350.09;5056699;28;45307;-77
2023/07/18 07:24:52;;;;;;;;;1.25;1.00;;;;;-147.70;100.00;61350.09;5037412;28;45589;-80
2023/07/18 07:27:19;;;;;;;;;1.00;1.00;;;;;-147.70;100.00;61350.09;5047992;28;45449;-79
2023/07/18 07:29:45;;;;;;;;;1.00;1.00;;;;;-147.70;100.00;61350.09;5052496;28;45413;-77
2023/07/18 07:32:10;;;;;;;;;2.00;0.00;;;;;-147.70;100.00;61350.09;5043296;28;45405;-78
2023/07/18 07:34:35;;;;;;;;;1.50;0.75;;;;;-147.70;100.00;61350.09;5050579;28;45250;-78
2023/07/18 07:37:01;;;;;;;;;1.00;1.00;;;;;-147.70;100.00;61350.09;5056784;28;45355;-76
2023/07/18 07:39:26;;;;;;;;;1.25;1.25;;;;;-147.70;100.00;61350.09;5055692;28;45612;-76
2023/07/18 07:41:52;;;;;;;;;1.67;1.00;;;;;-147.70;100.00;61350.09;5056955;28;45396;-76
2023/07/18 07:44:17;;;;;;;;;1.50;1.00;;;;;-147.70;100.00;61350.09;5054302;28;45526;-77
2023/07/18 07:46:42;;;;;;;;;1.67;1.00;;;;;-147.70;100.00;61350.09;5045583;28;45427;-77
2023/07/18 07:49:09;;;;;;;;;1.67;1.33;;;;;-147.70;100.00;61350.09;5038251;28;45448;-76
2023/07/18 07:51:35;;;;;;;;;3.00;0.00;;;;;-147.70;100.00;61350.09;5051683;28;46512;-78
2023/07/18 07:54:00;;;;;;;;;0.00;0.00;;;;;-147.70;100.00;61350.09;5042891;28;45448;-75
2023/07/18 07:56:25;;;;;;;;;0.33;0.33;;;;;-147.70;100.00;61350.09;5056899;28;45348;-75
2023/07/18 07:58:51;;;;;;;;;5.00;3.00;;;;;-147.70;100.00;61350.09;5037703;28;45405;-75
2023/07/18 08:01:16;;;;;;;;;1.00;1.00;;;;;-147.70;100.00;61350.09;5036626;28;45461;-75
2023/07/18 08:03:42;;;;;;;;;1.00;1.00;;;;;-147.70;100.00;61350.09;5051904;28;45379;-75
2023/07/18 08:06:07;;;;;;;;;3.00;2.00;;;;;-147.70;100.00;61350.09;5060404;28;45447;-75
2023/07/18 08:08:33;;;;;;;;;0.00;0.00;;;;;-147.70;100.00;61350.09;5061020;28;45356;-76
2023/07/18 08:10:58;;;;;;;;;1.00;1.00;;;;;-147.70;100.00;61350.09;5060863;28;46180;-76
2023/07/18 08:13:24;;;;;;;;;1.75;0.00;;;;;-147.70;100.00;61350.09;5060076;28;45317;-75
2023/07/18 08:15:50;;;;;;;;;0.00;0.00;;;;;-147.70;100.00;61350.09;5061094;28;45410;-77
2023/07/18 08:18:16;;;;;;;;;0.00;0.00;;;;;-147.70;100.00;61350.09;5059856;28;45436;-75
2023/07/18 08:20:41;;;;;;;;;3.50;1.00;;;;;-147.70;100.00;61350.09;5057672;28;45910;-75
2023/07/18 08:23:07;;;;;;;;;1.00;1.00;;;;;-147.70;100.00;61350.09;5039901;28;45297;-75
2023/07/18 08:25:32;;;;;;;;;0.25;0.25;;;;;-147.70;100.00;61350.09;5039995;28;45350;-76
2023/07/18 08:27:58;;;;;;;;;0.00;0.00;;;;;-147.70;100.00;61350.09;5040280;28;45465;-74
2023/07/18 08:30:24;;;;;;;;;2.00;1.00;;;;;-147.70;100.00;61350.09;5040153;28;46154;-75
2023/07/18 08:32:49;;;;;;;;;0.50;0.00;;;;;-147.70;100.00;61350.09;5039945;28;45554;-75
2023/07/18 08:35:14;;;;;;;;;0.00;0.00;;;;;-147.70;100.00;61350.09;5040304;28;45486;-76
2023/07/18 08:37:40;;;;;;;;;2.75;0.00;;;;;-147.70;100.00;61350.09;5039883;28;45417;-76
2023/07/18 08:40:07;;;;;;;;;1.50;0.00;;;;;-147.70;100.00;61350.09;5039747;28;46917;-76
2023/07/18 08:42:33;;;;;;;;;0.33;0.33;;;;;-147.70;100.00;61350.09;5039640;28;45431;-75
2023/07/18 08:44:59;;;;;;;;;2.50;0.00;;;;;-147.70;100.00;61350.09;5039703;28;45166;-75
2023/07/18 08:47:26;;;;;;;;;1.00;1.00;;;;;-147.70;100.00;61350.09;5039764;28;45448;-76
2023/07/18 08:49:52;;;;;;;;;0.00;0.00;;;;;-147.70;100.00;61350.09;5039467;28;46620;-76
2023/07/18 08:52:17;;;;;;;;;1.00;0.00;;;;;-147.70;100.00;61350.09;5039441;28;45342;-76
2023/07/18 08:54:42;;;;;;;;;0.00;0.00;;;;;-147.70;100.00;61350.09;5039449;28;45328;-76
2023/07/18 08:57:08;;;;;;;;;0.00;0.00;;;;;-147.70;100.00;61350.09;5039959;28;45284;-77
2023/07/18 08:59:34;;;;;;;;;0.50;0.50;;;;;-147.70;100.00;61350.09;5039058;28;47435;-76
2023/07/18 09:02:00;;;;;;;;;2.75;1.00;;;;;-147.70;100.00;61350.09;5047216;28;45357;-76
2023/07/18 09:04:25;;;;;;;;;4.33;3.00;;;;;-147.70;100.00;61350.09;5059468;28;45473;-76
2023/07/18 09:06:58;;;;;;;;;1.00;0.67;;;;;-147.70;100.00;61350.09;5059626;28;45320;-75
2023/07/18 09:09:24;;;;;;;;;0.00;0.00;;;;;-147.70;100.00;61350.09;5059319;28;46279;-76
2023/07/18 09:11:53;;;;;;;;;13.33;10.00;;;;;-147.70;100.00;61350.09;5059257;28;45277;-75
2023/07/18 09:14:23;;;;;;;;;2.00;2.00;;;;;-147.70;100.00;61350.09;5058750;28;45547;-76
2023/07/18 09:16:48;;;;;;;;;2.00;0.00;;;;;-147.70;100.00;61350.09;5059804;28;45444;-76
2023/07/18 09:19:13;;;;;;;;;0.00;0.00;;;;;-147.70;100.00;61350.09;5058976;28;46243;-77
2023/07/18 09:21:39;;;;;;;;;2.00;0.67;;;;;-147.70;100.00;61350.09;5059052;28;45398;-77
2023/07/18 09:24:04;;;;;;;;;0.00;0.00;;;;;-147.70;100.00;61350.09;5059497;28;45674;-76
2023/07/18 09:26:30;;;;;;;;;0.00;0.00;;;;;-147.70;100.00;61350.09;5059864;28;46004;-77
2023/07/18 09:28:55;;;;;;;;;3.00;1.00;;;;;-147.70;100.00;61350.09;5059021;28;46695;-77
2023/07/18 09:31:23;;;;;;;;;0.00;0.00;;;;;-147.70;100.00;61350.09;5058984;28;45352;-77
2023/07/18 09:33:50;;;;;;;;;0.00;0.00;;;;;-147.70;100.00;61350.09;5059003;28;45209;-76
2023/07/18 09:36:25;;;;;;;;;0.67;0.00;;;;;-147.70;100.00;61350.09;5059389;28;45439;-76
2023/07/18 09:38:51;;;;;;;;;0.67;0.00;;;;;-147.70;100.00;61350.09;5058789;28;47450;-78
2023/07/18 09:41:18;;;;;;;;;0.00;0.00;;;;;-147.70;100.00;61350.09;5059034;28;46018;-77
2023/07/18 09:43:44;;;;;;;;;0.00;0.00;;;;;-147.70;100.00;61350.09;5059857;28;45299;-78
2023/07/18 09:46:14;;;;;;;;;0.33;0.00;;;;;-147.70;100.00;61350.09;5055850;28;45382;-74
2023/07/18 09:48:41;;;;;;;;;0.00;0.00;;;;;-147.70;100.00;61350.09;5058400;28;47309;-77
2023/07/18 09:51:14;;;;;;;;;0.00;0.00;;;;;-147.70;100.00;61350.09;5058557;28;45293;-74
2023/07/18 09:53:44;;;;;;;;;0.00;0.00;;;;;-147.70;100.00;61350.09;5058553;28;45482;-75
2023/07/18 09:56:14;;;;;;;;;2.33;2.33;;;;;-147.70;100.00;61350.09;5058829;28;45388;-74
2023/07/18 09:58:39;;;;;;;;;0.00;0.00;;;;;-147.70;100.00;61350.09;5058285;28;46348;-75
2023/07/18 10:01:10;;;;;;;;;1.00;0.00;;;;;-147.70;100.00;61350.09;5058715;28;45237;-77
2023/07/18 10:03:38;;;;;;;;;0.00;0.00;;;;;-147.70;100.00;61350.09;5058419;28;45406;-75
2023/07/18 10:06:12;;;;;;;;;1.33;0.00;;;;;-147.70;100.00;61350.09;5058899;28;45375;-75
2023/07/18 10:08:40;;;;;;;;;3.67;0.00;;;;;-147.70;100.00;61350.09;5052171;28;47391;-74
2023/07/18 10:11:09;;;;;;;;;0.00;0.00;;;;;-147.70;100.00;61350.09;5056489;28;45389;-74
2023/07/18 10:13:42;;;;;;;;;0.33;0.00;;;;;-147.70;100.00;61350.09;5057589;28;45505;-76
2023/07/18 10:16:13;;;;;;;;;0.00;0.00;;;;;-147.70;100.00;61350.09;5058719;28;46109;-74
2023/07/18 10:18:51;;;;;;;;;0.00;0.00;;;;;-147.70;100.00;61350.09;5057470;28;45403;-76
2023/07/18 10:21:33;;;;;;;;;0.67;0.67;;;;;-147.70;100.00;61350.09;5041800;28;45384;-75
2023/07/18 10:24:19;;;;;;;;;0.00;0.00;;;;;-147.70;100.00;61350.09;5038068;28;45229;-75
2023/07/18 10:26:48;;;;;;;;;0.00;0.00;;;;;-147.70;100.00;61350.09;5052435;28;45214;-75
2023/07/18 10:29:14;;;;;;;;;0.00;0.00;;;;;-147.70;100.00;61350.09;5044948;28;47523;-75
2023/07/18 10:31:39;;;;;;;;;0.00;0.00;;;;;-147.70;100.00;61350.09;5056485;28;45865;-76
2023/07/18 10:34:15;;;;;;;;;0.67;0.00;;;;;-147.70;100.00;61350.09;5056415;28;45365;-76
2023/07/18 10:36:55;;;;;;;;;0.00;0.00;;;;;-147.70;100.00;61350.09;5047571;28;45337;-75
2023/07/18 10:39:38;;;;;;;;;0.00;0.00;;;;;-147.70;100.00;61350.09;5041565;28;46444;-70
2023/07/18 10:42:21;;;;;;;;;0.00;0.00;;;;;-147.70;100.00;61350.09;5050274;28;45586;-76
2023/07/18 10:44:54;;;;;;;;;1.00;1.00;;;;;-147.70;100.00;61350.09;5057331;28;45419;-77
2023/07/18 10:47:19;;;;;;;;;0.00;0.00;;;;;-147.70;100.00;61350.09;5058087;28;45443;-74
2023/07/18 10:49:47;;;;;;;;;0.00;0.00;;;;;-147.70;100.00;61350.09;5057297;28;46448;-77
2023/07/18 10:52:13;;;;;;;;;0.00;0.00;;;;;-147.70;100.00;61350.09;5057448;28;45415;-74
2023/07/18 10:54:53;;;;;;;;;0.25;0.25;;;;;-147.70;100.00;61350.09;5057775;28;45482;-74
2023/07/18 10:57:27;;;;;;;;;0.00;0.00;;;;;-147.70;100.00;61350.09;5057856;28;45447;-73
2023/07/18 10:59:52;;;;;;;;;0.00;0.00;;;;;-147.70;100.00;61350.09;5051764;28;47465;-74
2023/07/18 11:02:19;;;;;;;;;0.00;0.00;;;;;-147.70;100.00;61350.09;5046022;28;45484;-76
2023/07/18 11:04:46;;;;;;;;;0.00;0.00;;;;;-147.70;100.00;61350.09;5038007;28;45392;-72
2023/07/18 11:07:11;;;;;;;;;0.00;0.00;;;;;-147.70;100.00;61350.09;5043857;28;45492;-62